createdAt,value
2023-01-12T00:02:58.888Z,101045.31
2023-01-12T00:06:11.183Z,101049.44
2023-01-12T00:09:13.401Z,101055.78
2023-01-12T00:12:16.293Z,101055.06
2023-01-12T00:15:38.719Z,101055.97
2023-01-12T00:18:40.973Z,101053.19
2023-01-12T00:21:58.796Z,101058.75
2023-01-12T00:25:01.243Z,101043.34
2023-01-12T00:28:03.563Z,101050.06
2023-01-12T00:31:08.636Z,101053.06
2023-01-12T00:34:12.211Z,101062.81
2023-01-12T00:37:14.598Z,101049.53
2023-01-12T00:40:19.187Z,101057.53
2023-01-12T00:43:39.867Z,101055.34
2023-01-12T00:46:42.215Z,101043.69
2023-01-12T00:49:47.845Z,101043.44
2023-01-12T00:52:49.998Z,101062.91
2023-01-12T00:55:53.262Z,101062.50
2023-01-12T00:58:55.846Z,101064.56
2023-01-12T01:01:59.381Z,101067.34
2023-01-12T01:05:01.556Z,101077.19
2023-01-12T01:08:04.455Z,101077.91
2023-01-12T01:11:09.697Z,101080.31
2023-01-12T01:14:11.687Z,101084.66
2023-01-12T01:17:13.788Z,101081.75
2023-01-12T01:20:16.246Z,101090.25
2023-01-12T01:23:18.290Z,101086.84
2023-01-12T01:26:23.291Z,101081.88
2023-01-12T01:29:26.033Z,101092.22
2023-01-12T01:32:28.115Z,101097.06
2023-01-12T01:35:30.058Z,101102.84
2023-01-12T01:38:32.629Z,101109.59
2023-01-12T01:41:34.912Z,101108.78
2023-01-12T01:44:50.509Z,101104.34
2023-01-12T01:47:58.074Z,101103.31
2023-01-12T01:51:05.089Z,101108.78
2023-01-12T01:54:07.648Z,101100.28
2023-01-12T01:57:13.050Z,101098.72
2023-01-12T02:00:16.161Z,101093.66
2023-01-12T02:03:19.089Z,101100.63
2023-01-12T02:06:24.769Z,101102.97
2023-01-12T02:09:28.256Z,101111.25
2023-01-12T02:12:48.659Z,101096.03
2023-01-12T02:16:15.215Z,101109.41
2023-01-12T02:19:50.942Z,101111.91
2023-01-12T02:23:07.902Z,101116.00
2023-01-12T02:26:49.728Z,101103.78
2023-01-12T02:30:33.699Z,101106.91
2023-01-12T02:33:55.157Z,101102.56
2023-01-12T02:37:12.461Z,101101.84
2023-01-12T02:40:46.689Z,101094.81
2023-01-12T02:43:49.749Z,101084.34
2023-01-12T02:46:52.706Z,101099.03
2023-01-12T02:50:00.714Z,101097.06
2023-01-12T02:53:24.660Z,101082.69
2023-01-12T02:56:37.421Z,101087.09
2023-01-12T02:59:44.358Z,101079.06
2023-01-12T03:02:46.697Z,101084.25
2023-01-12T03:05:52.418Z,101079.31
2023-01-12T03:08:55.243Z,101066.81
2023-01-12T03:12:04.103Z,101073.28
2023-01-12T03:15:11.122Z,101075.16
2023-01-12T03:18:18.540Z,101077.16
2023-01-12T03:21:34.805Z,101071.41
2023-01-12T03:24:45.873Z,101070.03
2023-01-12T03:27:53.186Z,101070.09
2023-01-12T03:31:01.017Z,101072.72
2023-01-12T03:34:03.116Z,101069.56
2023-01-12T03:37:16.383Z,101077.69
2023-01-12T03:40:31.227Z,101074.25
2023-01-12T03:43:40.913Z,101074.16
2023-01-12T03:46:52.212Z,101070.75
2023-01-12T03:49:58.773Z,101073.72
2023-01-12T03:53:06.950Z,101073.03
2023-01-12T03:56:11.553Z,101062.22
2023-01-12T03:59:14.594Z,101064.72
2023-01-12T04:02:17.256Z,101070.06
2023-01-12T04:05:19.455Z,101072.56
2023-01-12T04:08:23.261Z,101064.59
2023-01-12T04:11:44.374Z,101065.31
2023-01-12T04:14:48.213Z,101065.50
2023-01-12T04:17:50.597Z,101067.53
2023-01-12T04:20:53.753Z,101066.75
2023-01-12T04:23:56.223Z,101078.25
2023-01-12T04:26:58.629Z,101065.50
2023-01-12T04:30:04.170Z,101062.97
2023-01-12T04:33:09.508Z,101071.53
2023-01-12T04:36:11.898Z,101072.81
2023-01-12T04:39:14.570Z,101068.91
2023-01-12T04:42:35.465Z,101064.72
2023-01-12T04:45:42.158Z,101068.97
2023-01-12T04:48:44.403Z,101072.19
2023-01-12T04:51:46.515Z,101067.78
2023-01-12T04:54:48.463Z,101070.69
2023-01-12T04:57:50.614Z,101074.13
2023-01-12T05:00:53.002Z,101079.78
2023-01-12T05:03:57.195Z,101083.97
2023-01-12T05:07:01.616Z,101082.44
2023-01-12T05:10:24.054Z,101081.66
2023-01-12T05:13:28.958Z,101079.97
2023-01-12T05:16:31.042Z,101084.50
2023-01-12T05:19:33.525Z,101084.81
2023-01-12T05:22:35.479Z,101091.19
2023-01-12T05:25:37.427Z,101089.09
2023-01-12T05:28:39.730Z,101087.25
2023-01-12T05:31:43.482Z,101086.22
2023-01-12T05:34:48.441Z,101092.16
2023-01-12T05:37:50.448Z,101097.66
2023-01-12T05:40:52.429Z,101100.00
2023-01-12T05:43:55.067Z,101095.09
2023-01-12T05:46:57.058Z,101089.47
2023-01-12T05:49:59.107Z,101093.66
2023-01-12T05:53:01.324Z,101090.41
2023-01-12T05:56:15.758Z,101085.63
2023-01-12T05:59:20.461Z,101086.16
2023-01-12T06:02:22.574Z,101089.94
2023-01-12T06:05:25.033Z,101090.41
2023-01-12T06:08:27.493Z,101077.97
2023-01-12T06:11:48.376Z,101091.72
2023-01-12T06:14:50.266Z,101088.69
2023-01-12T06:17:52.268Z,101091.91
2023-01-12T06:20:54.219Z,101092.69
2023-01-12T06:23:58.199Z,101090.09
2023-01-12T06:27:00.464Z,101096.63
2023-01-12T06:30:02.385Z,101110.84
2023-01-12T06:33:05.363Z,101117.09
2023-01-12T06:36:08.528Z,101117.09
2023-01-12T06:39:13.693Z,101117.41
2023-01-12T06:42:44.688Z,101129.94
2023-01-12T06:45:46.727Z,101132.44
2023-01-12T06:48:50.382Z,101143.81
2023-01-12T06:51:52.857Z,101139.38
2023-01-12T06:54:56.435Z,101143.91
2023-01-12T06:58:05.344Z,101147.16
2023-01-12T07:01:11.175Z,101129.72
2023-01-12T07:04:14.926Z,101142.16
2023-01-12T07:07:21.352Z,101157.63
2023-01-12T07:10:29.778Z,101161.09
2023-01-12T07:13:43.380Z,101168.56
2023-01-12T07:17:08.133Z,101161.19
2023-01-12T07:20:57.715Z,101170.75
2023-01-12T07:24:30.671Z,101153.84
2023-01-12T07:32:27.712Z,101174.69
2023-01-12T07:36:26.846Z,101170.69
2023-01-12T07:39:37.313Z,101170.22
2023-01-12T07:42:49.700Z,101173.09
2023-01-12T07:46:49.209Z,101181.88
2023-01-12T07:50:10.329Z,101155.75
2023-01-12T07:53:21.169Z,101181.38
2023-01-12T07:56:29.159Z,101176.81
2023-01-12T07:59:51.820Z,101154.81
2023-01-12T08:03:41.330Z,101196.56
2023-01-12T08:08:10.321Z,101167.16
2023-01-12T08:11:15.989Z,101173.66
2023-01-12T08:14:28.899Z,101198.22
2023-01-12T08:17:43.753Z,101189.81
2023-01-12T08:21:10.427Z,101204.44
2023-01-12T08:24:20.518Z,101184.38
2023-01-12T08:27:26.406Z,101189.47
2023-01-12T08:30:29.981Z,101182.22
2023-01-12T08:33:32.246Z,101195.88
2023-01-12T08:36:36.553Z,101188.41
2023-01-12T08:39:42.599Z,101192.00
2023-01-12T08:42:51.246Z,101182.91
2023-01-12T08:46:11.164Z,101178.50
2023-01-12T08:49:16.767Z,101185.59
2023-01-12T08:52:21.701Z,101182.50
2023-01-12T08:55:24.578Z,101187.94
2023-01-12T08:58:34.515Z,101186.28
2023-01-12T09:01:46.062Z,101185.59
2023-01-12T09:05:19.704Z,101196.50
2023-01-12T09:08:52.923Z,101173.31
2023-01-12T09:12:26.215Z,101180.03
2023-01-12T09:16:13.682Z,101200.00
2023-01-12T09:19:16.028Z,101188.06
2023-01-12T09:22:28.042Z,101199.91
2023-01-12T09:29:20.300Z,101176.75
2023-01-12T09:32:37.109Z,101181.16
2023-01-12T09:35:47.647Z,101182.56
2023-01-12T09:38:54.004Z,101200.63
2023-01-12T09:42:21.728Z,101173.22
2023-01-12T09:45:47.338Z,101175.69
2023-01-12T09:49:20.072Z,101185.25
2023-01-12T09:52:56.529Z,101161.66
2023-01-12T09:56:30.489Z,101189.06
2023-01-12T10:00:06.852Z,101168.16
2023-01-12T10:03:57.879Z,101179.94
2023-01-12T10:07:04.139Z,101172.03
2023-01-12T10:10:30.510Z,101151.94
2023-01-12T10:14:26.730Z,101145.31
2023-01-12T10:18:26.527Z,101160.47
2023-01-12T10:24:59.026Z,101146.63
2023-01-12T10:28:26.398Z,101168.53
2023-01-12T10:31:28.813Z,101163.09
2023-01-12T10:34:54.516Z,101157.47
2023-01-12T10:38:10.228Z,101152.25
2023-01-12T10:41:24.835Z,101159.03
2023-01-12T10:44:29.763Z,101149.47
2023-01-12T10:47:35.273Z,101141.53
2023-01-12T10:50:39.817Z,101152.72
2023-01-12T10:54:25.659Z,101159.78
2023-01-12T10:57:34.654Z,101151.47
2023-01-12T11:19:50.222Z,101128.19
2023-01-12T11:23:06.270Z,101082.28
2023-01-12T11:26:32.262Z,101085.97
2023-01-12T11:29:47.412Z,101103.22
2023-01-12T11:33:12.116Z,101122.78
2023-01-12T11:36:43.993Z,101107.91
2023-01-12T11:40:19.016Z,101074.25
2023-01-12T11:43:56.231Z,101111.41
2023-01-12T11:47:23.557Z,101095.56
2023-01-12T11:50:58.373Z,101095.59
2023-01-12T11:54:18.742Z,101079.91
2023-01-12T11:57:48.961Z,101110.44
2023-01-12T12:01:30.238Z,101104.97
2023-01-12T12:04:58.410Z,101090.09
2023-01-12T12:27:16.553Z,101077.75
2023-01-12T12:30:54.267Z,101078.16
2023-01-12T12:34:31.100Z,101083.38
2023-01-12T12:37:33.593Z,101082.69
2023-01-12T12:46:09.597Z,101060.69
2023-01-12T12:50:03.187Z,101073.63
2023-01-12T12:53:28.511Z,101081.03
2023-01-12T12:57:08.191Z,101077.75
2023-01-12T13:00:40.471Z,101067.88
2023-01-12T13:03:56.785Z,101051.91
2023-01-12T13:07:09.798Z,101067.88
2023-01-12T13:10:26.067Z,101073.91
2023-01-12T13:13:41.952Z,101067.31
2023-01-12T13:17:07.484Z,101058.09
2023-01-12T13:21:12.633Z,101070.59
2023-01-12T13:24:48.815Z,101070.47
2023-01-12T13:28:12.996Z,101072.22
2023-01-12T13:31:42.079Z,101058.34
2023-01-12T13:34:50.072Z,101062.19
2023-01-12T13:38:20.478Z,101081.44
2023-01-12T13:42:13.707Z,101057.69
2023-01-12T13:45:58.916Z,101072.22
2023-01-12T13:49:26.796Z,101071.00
2023-01-12T13:52:34.404Z,101072.63
2023-01-12T13:55:37.904Z,101090.34
2023-01-12T13:58:51.321Z,101046.63
2023-01-12T14:01:57.192Z,101073.53
2023-01-12T14:05:33.201Z,101086.75
2023-01-12T14:09:02.363Z,101085.75
2023-01-12T14:16:35.235Z,101079.59
2023-01-12T14:19:42.932Z,101074.25
2023-01-12T14:22:50.922Z,101083.84
2023-01-12T14:26:16.741Z,101076.16
2023-01-12T14:29:24.205Z,101077.94
2023-01-12T14:32:28.320Z,101068.19
2023-01-12T14:35:31.566Z,101070.50
2023-01-12T14:38:38.143Z,101054.19
2023-01-12T14:42:00.974Z,101062.84
2023-01-12T14:45:55.438Z,101057.03
2023-01-12T14:49:22.073Z,101055.13
2023-01-12T14:52:32.485Z,101046.72
2023-01-12T14:55:40.129Z,101054.00
2023-01-12T14:58:42.509Z,101036.53
2023-01-12T15:01:45.078Z,101039.16
2023-01-12T15:05:07.822Z,101051.34
2023-01-12T15:08:13.133Z,101048.59
2023-01-12T15:11:16.487Z,101054.44
2023-01-12T15:14:26.354Z,101053.09
2023-01-12T15:17:47.235Z,101045.41
2023-01-12T15:21:08.187Z,101051.25
2023-01-12T15:24:47.286Z,101060.41
2023-01-12T15:27:49.239Z,101055.97
2023-01-12T15:30:53.517Z,101048.44
2023-01-12T15:33:57.472Z,101055.72
2023-01-12T15:36:59.728Z,101058.25
2023-01-12T15:40:01.974Z,101057.31
2023-01-12T15:43:04.866Z,101052.19
2023-01-12T15:46:07.218Z,101056.75
2023-01-12T15:49:10.641Z,101058.28
2023-01-12T15:52:14.838Z,101067.47
2023-01-12T15:55:23.382Z,101058.78
2023-01-12T15:58:26.627Z,101074.97
2023-01-12T16:01:44.012Z,101076.56
2023-01-12T16:04:46.534Z,101076.78
2023-01-12T16:07:49.819Z,101076.56
2023-01-12T16:11:10.469Z,101070.22
2023-01-12T16:14:14.993Z,101075.44
2023-01-12T16:17:17.932Z,101076.25
2023-01-12T16:20:20.576Z,101073.91
2023-01-12T16:23:22.890Z,101082.28
2023-01-12T16:26:26.841Z,101083.34
2023-01-12T16:29:29.233Z,101083.97
2023-01-12T16:32:34.256Z,101078.50
2023-01-12T16:35:36.497Z,101079.00
2023-01-12T16:38:39.025Z,101083.03
2023-01-12T16:41:44.379Z,101088.38
2023-01-12T16:44:49.606Z,101088.13
2023-01-12T16:47:58.203Z,101095.00
2023-01-12T16:51:01.603Z,101089.69
2023-01-12T16:54:04.970Z,101084.50
2023-01-12T16:57:07.234Z,101087.22
2023-01-12T17:00:13.547Z,101092.66
2023-01-12T17:03:16.316Z,101093.25
2023-01-12T17:06:20.769Z,101095.59
2023-01-12T17:09:24.564Z,101095.59
2023-01-12T17:12:27.118Z,101101.63
2023-01-12T17:15:30.347Z,101089.56
2023-01-12T17:18:35.175Z,101099.88
2023-01-12T17:21:40.501Z,101079.09
2023-01-12T17:24:44.385Z,101091.72
2023-01-12T17:27:46.906Z,101085.69
2023-01-12T17:30:49.945Z,101096.88
2023-01-12T17:33:54.022Z,101100.06
2023-01-12T17:37:00.174Z,101085.69
2023-01-12T17:40:03.054Z,101087.34
2023-01-12T17:43:08.637Z,101093.50
2023-01-12T17:46:18.751Z,101084.97
2023-01-12T17:49:21.321Z,101087.13
2023-01-12T17:52:24.515Z,101092.28
2023-01-12T17:55:29.598Z,101089.00
2023-01-12T17:58:32.643Z,101087.13
2023-01-12T18:01:36.818Z,101083.00
2023-01-12T18:04:39.105Z,101081.94
2023-01-12T18:07:42.386Z,101092.44
2023-01-12T18:10:46.449Z,101090.56
2023-01-12T18:13:54.400Z,101094.44
2023-01-12T18:16:58.065Z,101090.06
2023-01-12T18:20:00.694Z,101093.50
2023-01-12T18:23:04.006Z,101093.59
2023-01-12T18:26:09.332Z,101097.97
2023-01-12T18:29:11.871Z,101083.31
2023-01-12T18:32:14.166Z,101096.22
2023-01-12T18:35:17.273Z,101080.06
2023-01-12T18:38:19.765Z,101090.66
2023-01-12T18:41:41.274Z,101084.16
2023-01-12T18:44:43.450Z,101088.53
2023-01-12T18:48:04.933Z,101094.09
2023-01-12T18:51:29.392Z,101076.25
2023-01-12T18:54:32.676Z,101082.63
2023-01-12T18:57:37.873Z,101088.06
2023-01-12T19:00:40.461Z,101088.75
2023-01-12T19:03:42.905Z,101080.94
2023-01-12T19:06:47.954Z,101088.38
2023-01-12T19:09:50.406Z,101095.44
2023-01-12T19:13:12.735Z,101087.56
2023-01-12T19:16:34.910Z,101090.13
2023-01-12T19:19:38.576Z,101091.25
2023-01-12T19:22:59.788Z,101085.59
2023-01-12T19:26:22.177Z,101086.28
2023-01-12T19:29:24.707Z,101079.34
2023-01-12T19:32:27.177Z,101078.53
2023-01-12T19:35:29.399Z,101068.16
2023-01-12T19:38:31.463Z,101061.91
2023-01-12T19:41:53.664Z,101048.09
2023-01-12T19:44:56.284Z,101050.59
2023-01-12T19:47:59.409Z,101052.31
2023-01-12T19:51:10.632Z,101036.50
2023-01-12T19:54:16.020Z,101043.56
2023-01-12T19:57:18.145Z,101035.09
2023-01-12T20:00:22.583Z,101026.69
2023-01-12T20:03:26.127Z,101035.81
2023-01-12T20:06:29.854Z,101029.81
2023-01-12T20:09:33.767Z,101037.22
2023-01-12T20:12:37.853Z,101044.22
2023-01-12T20:15:41.835Z,101038.53
2023-01-12T20:18:45.055Z,101046.44
2023-01-12T20:21:48.579Z,101048.78
2023-01-12T20:24:50.661Z,101056.25
2023-01-12T20:27:55.113Z,101060.69
2023-01-12T20:31:00.707Z,101058.25
2023-01-12T20:34:04.646Z,101055.06
2023-01-12T20:37:06.754Z,101046.66
2023-01-12T20:40:10.246Z,101071.53
2023-01-12T20:43:14.420Z,101072.53
2023-01-12T20:46:18.440Z,101080.28
2023-01-12T20:49:20.942Z,101067.50
2023-01-12T20:52:24.169Z,101080.47
2023-01-12T20:55:26.305Z,101076.56
2023-01-12T20:58:28.388Z,101076.16
2023-01-12T21:01:30.748Z,101072.56
2023-01-12T21:04:35.146Z,101074.75
2023-01-12T21:07:37.823Z,101063.41
2023-01-12T21:10:49.483Z,101063.97
2023-01-12T21:13:52.245Z,101064.19
2023-01-12T21:16:54.909Z,101077.03
2023-01-12T21:19:57.349Z,101074.34
2023-01-12T21:23:00.342Z,101072.69
2023-01-12T21:26:07.862Z,101080.28
2023-01-12T21:29:11.194Z,101073.34
2023-01-12T21:32:14.271Z,101074.13
2023-01-12T21:35:16.841Z,101065.63
2023-01-12T21:38:19.494Z,101080.91
2023-01-12T21:41:22.674Z,101079.00
2023-01-12T21:44:26.004Z,101069.28
2023-01-12T21:47:28.006Z,101058.75
2023-01-12T21:50:32.004Z,101069.84
2023-01-12T21:53:35.041Z,101064.34
2023-01-12T21:56:37.827Z,101048.59
2023-01-12T21:59:40.619Z,101059.97
2023-01-12T22:02:43.286Z,101059.75
2023-01-12T22:05:47.895Z,101055.84
2023-01-12T22:08:49.943Z,101042.88
2023-01-12T22:11:52.918Z,101051.84
2023-01-12T22:14:55.470Z,101055.78
2023-01-12T22:17:57.828Z,101051.63
2023-01-12T22:21:05.981Z,101044.63
2023-01-12T22:24:08.893Z,101039.38
2023-01-12T22:27:11.157Z,101049.19
2023-01-12T22:30:19.757Z,101044.63
2023-01-12T22:33:23.132Z,101041.75
2023-01-12T22:36:26.816Z,101042.19
2023-01-12T22:39:28.965Z,101046.59
2023-01-12T22:42:50.175Z,101042.66
2023-01-12T22:45:54.948Z,101029.84
2023-01-12T22:49:02.261Z,101029.84
2023-01-12T22:52:05.602Z,101025.50
2023-01-12T22:55:08.192Z,101025.28
2023-01-12T22:58:10.137Z,101024.91
2023-01-12T23:01:11.992Z,101022.84
2023-01-12T23:04:15.234Z,101030.34
2023-01-12T23:07:19.454Z,101035.94
2023-01-12T23:10:24.540Z,101033.25
2023-01-12T23:13:26.551Z,101029.94
2023-01-12T23:16:28.648Z,101030.88
2023-01-12T23:19:32.063Z,101025.34
2023-01-12T23:22:34.138Z,101043.81
2023-01-12T23:25:38.522Z,101032.16
2023-01-12T23:28:45.488Z,101041.63
2023-01-12T23:31:49.611Z,101037.50
2023-01-12T23:34:51.531Z,101037.38
2023-01-12T23:37:53.956Z,101043.19
2023-01-12T23:40:56.885Z,101042.06
2023-01-12T23:44:00.820Z,101050.38
2023-01-12T23:47:06.533Z,101045.63
2023-01-12T23:50:11.273Z,101036.31
2023-01-12T23:53:14.795Z,101037.66
2023-01-12T23:56:17.053Z,101039.44
2023-01-12T23:59:20.239Z,101040.47
